Main page
METAR-TAF:

METAR-TAF

Airports :

Kushok Bakula Rimpochee Airport

Leh, India

latitude: 34-08-09N, longitude: 077-32-47E, elevation: 3256 m

Current weather observation

The report was made 58 minutes ago, at 00:30 UTC
Wind 2 kt from variable directions
Temperature
Pressure 1024 hPa
Visibility: 6000 m
Few clouds at a height of 7000 ft

METAR: VILH 190030Z VRB02KT 6000 FEW070 01/-2 Q1024 NOSIG

Time: 06:58 (01:28 UTC)

Forecast

The report was made 15 hours and 58 minutes ago, at 09:30 UTC
Forecast valid from 18 at 18 UTC to 19 at 12 UTC
Wind 2 kt from variable directions
Visibility: 6000 m
Scattered clouds at a height of 6000 ft
Scattered clouds at a height of 12000 ft
Becoming
between 19 and 04 UTC
Wind 10 kt from the West/Northwest
Few clouds at a height of 6000 ft
Scattered clouds at a height of 15000 ft
Temporary
from 19 at 08 UTC to 19 at 12 UTC
Wind 15 kt from the West/Northwest with gusts up to 25 kt

TAF: VILH 180930Z 1818/1912 VRB02KT 6000 SCT060 SCT120 BECMG 1904 29010KT FEW060 SCT150 TEMPO 1908/1912 29015G25KT

Weather observations and forecasts of more than 4000 airports (METAR and TAF reports).

The available stations are represented by yellow and red dots on the map.

Hover mouse over dot to see the name of the station.

Then click to see weather observations and forecasts.

To change the map : click on the green buttons with a black cross to zoom in, on the green button with a dash to zoom out, or on the green arrows for adjacent maps.


METAR-TAF: